JST503 YSSY-YMML
Flight info
| Callsign | JST503 |
|---|---|
| Flight time | 1h 23m |
| Altitude | 36000 |
| Route | WOL H65 LEECE Q29 ML |
| Aircraft | A320/M-SDE3FGHIRWY/LB1 |
Departure
| Time | 2026-05-04 10:19 |
|---|---|
| Airport | Sydney Kingsford Smith International Airport (YSSY) |
Arrival
| Time | 2026-05-04 11:42 |
|---|---|
| Airport | Melbourne Airport (YMML) |
| Time | Latitude | Longitude | Altitude | Speed | Heading |
|---|---|---|---|---|---|
| 2026-05-04 09:53 | -33.93485 | 151.17773 | 30 ft | 0 kts | 279° |
| 2026-05-04 10:02 | -33.93485 | 151.17847 | 29 ft | 3 kts | 189° |
| 2026-05-04 10:04 | -33.93607 | 151.17821 | 30 ft | 0 kts | 189° |
| 2026-05-04 10:06 | -33.93610 | 151.17821 | 30 ft | 2 kts | 189° |
| 2026-05-04 10:08 | -33.94178 | 151.17851 | 30 ft | 17 kts | 168° |
| 2026-05-04 10:08 | -33.94305 | 151.17884 | 30 ft | 21 kts | 167° |
| 2026-05-04 10:08 | -33.94443 | 151.17911 | 30 ft | 18 kts | 184° |
| 2026-05-04 10:08 | -33.94550 | 151.17884 | 30 ft | 18 kts | 167° |
| 2026-05-04 10:09 | -33.94686 | 151.17923 | 31 ft | 22 kts | 167° |
| 2026-05-04 10:09 | -33.94854 | 151.17966 | 30 ft | 27 kts | 168° |
| 2026-05-04 10:09 | -33.94986 | 151.18001 | 31 ft | 20 kts | 167° |
| 2026-05-04 10:09 | -33.95035 | 151.18014 | 31 ft | 1 kts | 168° |
| 2026-05-04 10:10 | -33.95064 | 151.18022 | 31 ft | 7 kts | 167° |
| 2026-05-04 10:10 | -33.95102 | 151.18081 | 31 ft | 12 kts | 93° |
| 2026-05-04 10:10 | -33.95082 | 151.18203 | 31 ft | 18 kts | 77° |
| 2026-05-04 10:10 | -33.95055 | 151.18354 | 31 ft | 12 kts | 78° |
| 2026-05-04 10:11 | -33.95043 | 151.18423 | 31 ft | 8 kts | 77° |
| 2026-05-04 10:11 | -33.95059 | 151.18502 | 30 ft | 13 kts | 142° |
| 2026-05-04 10:11 | -33.95147 | 151.18577 | 30 ft | 18 kts | 137° |
| 2026-05-04 10:11 | -33.95257 | 151.18686 | 30 ft | 23 kts | 149° |
| 2026-05-04 10:12 | -33.95427 | 151.18747 | 30 ft | 28 kts | 168° |
| 2026-05-04 10:12 | -33.95631 | 151.18801 | 30 ft | 25 kts | 167° |
| 2026-05-04 10:12 | -33.95822 | 151.18851 | 30 ft | 31 kts | 168° |
| 2026-05-04 10:12 | -33.95997 | 151.18896 | 30 ft | 28 kts | 167° |
| 2026-05-04 10:13 | -33.96202 | 151.18949 | 30 ft | 33 kts | 168° |
| 2026-05-04 10:13 | -33.96438 | 151.19010 | 30 ft | 27 kts | 168° |
| 2026-05-04 10:13 | -33.96634 | 151.19061 | 30 ft | 20 kts | 168° |
| 2026-05-04 10:13 | -33.96737 | 151.19072 | 30 ft | 17 kts | 188° |
| 2026-05-04 10:14 | -33.96869 | 151.19078 | 30 ft | 22 kts | 167° |
| 2026-05-04 10:14 | -33.96991 | 151.19109 | 30 ft | 14 kts | 168° |
| 2026-05-04 10:16 | -33.97115 | 151.19261 | 29 ft | 0 kts | 76° |
| 2026-05-04 10:16 | -33.97114 | 151.19268 | 29 ft | 4 kts | 76° |
| 2026-05-04 10:17 | -33.97098 | 151.19337 | 28 ft | 13 kts | 68° |
| 2026-05-04 10:17 | -33.97028 | 151.19364 | 25 ft | 0 kts | 347° |
| 2026-05-04 10:19 | -33.94574 | 151.18808 | 1005 ft | 161 kts | 1° |
| 2026-05-04 10:19 | -33.93548 | 151.19348 | 1957 ft | 177 kts | 37° |
| 2026-05-04 10:19 | -33.92888 | 151.20857 | 2107 ft | 244 kts | 76° |
| 2026-05-04 10:19 | -33.93085 | 151.23122 | 2029 ft | 283 kts | 101° |
| 2026-05-04 10:20 | -33.93592 | 151.25318 | 2158 ft | 263 kts | 101° |
| 2026-05-04 10:20 | -33.93889 | 151.27395 | 2808 ft | 242 kts | 89° |
| 2026-05-04 10:20 | -33.93902 | 151.29494 | 3431 ft | 262 kts | 83° |
| 2026-05-04 10:20 | -33.93807 | 151.31733 | 4604 ft | 273 kts | 81° |
| 2026-05-04 10:21 | -33.93687 | 151.34041 | 5882 ft | 280 kts | 81° |
| 2026-05-04 10:21 | -33.93569 | 151.36410 | 7004 ft | 287 kts | 82° |
| 2026-05-04 10:21 | -33.93461 | 151.38797 | 7018 ft | 291 kts | 82° |
| 2026-05-04 10:21 | -33.93367 | 151.41241 | 6580 ft | 293 kts | 83° |
| 2026-05-04 10:22 | -33.93217 | 151.46125 | 5867 ft | 289 kts | 83° |
| 2026-05-04 10:22 | -33.93158 | 151.48538 | 5537 ft | 287 kts | 85° |
| 2026-05-04 10:22 | -33.93433 | 151.50926 | 5277 ft | 291 kts | 102° |
| 2026-05-04 10:23 | -33.94264 | 151.53196 | 5618 ft | 307 kts | 120° |
| 2026-05-04 10:23 | -33.95624 | 151.55197 | 6934 ft | 309 kts | 136° |
| 2026-05-04 10:25 | -34.08786 | 151.51432 | 14176 ft | 339 kts | 237° |
| 2026-05-04 10:25 | -34.10258 | 151.49186 | 15122 ft | 343 kts | 237° |
| 2026-05-04 10:25 | -34.11746 | 151.46907 | 16046 ft | 348 kts | 237° |
| 2026-05-04 10:25 | -34.13250 | 151.44605 | 16960 ft | 352 kts | 237° |
| 2026-05-04 10:26 | -34.14756 | 151.42300 | 17882 ft | 357 kts | 237° |
| 2026-05-04 10:26 | -34.16302 | 151.39935 | 18746 ft | 361 kts | 237° |
| 2026-05-04 10:26 | -34.17866 | 151.37546 | 19619 ft | 364 kts | 237° |
| 2026-05-04 10:26 | -34.19444 | 151.35135 | 20498 ft | 367 kts | 238° |
| 2026-05-04 10:27 | -34.21030 | 151.32712 | 21375 ft | 369 kts | 238° |
| 2026-05-04 10:27 | -34.22628 | 151.30268 | 22207 ft | 372 kts | 238° |
| 2026-05-04 10:27 | -34.24234 | 151.27804 | 23017 ft | 375 kts | 239° |
| 2026-05-04 10:27 | -34.25854 | 151.25320 | 23785 ft | 378 kts | 239° |
| 2026-05-04 10:28 | -34.27463 | 151.22847 | 24435 ft | 381 kts | 239° |
| 2026-05-04 10:28 | -34.29114 | 151.20317 | 25085 ft | 385 kts | 239° |
| 2026-05-04 10:28 | -34.30781 | 151.17764 | 25715 ft | 388 kts | 239° |
| 2026-05-04 10:28 | -34.32456 | 151.15191 | 26342 ft | 392 kts | 239° |
| 2026-05-04 10:29 | -34.34145 | 151.12590 | 26976 ft | 395 kts | 239° |
| 2026-05-04 10:29 | -34.35852 | 151.09949 | 27590 ft | 399 kts | 239° |
| 2026-05-04 10:29 | -34.37567 | 151.07294 | 27955 ft | 402 kts | 239° |
| 2026-05-04 10:30 | -34.41029 | 151.01962 | 28036 ft | 402 kts | 240° |
| 2026-05-04 10:30 | -34.44490 | 150.96638 | 28037 ft | 402 kts | 240° |
| 2026-05-04 10:30 | -34.46227 | 150.93953 | 28439 ft | 407 kts | 240° |
| 2026-05-04 10:31 | -34.47950 | 150.91280 | 29133 ft | 409 kts | 240° |
| 2026-05-04 10:31 | -34.49709 | 150.88552 | 29773 ft | 413 kts | 240° |
| 2026-05-04 10:32 | -34.60283 | 150.71797 | 33953 ft | 407 kts | 243° |
| 2026-05-04 10:33 | -34.61930 | 150.69033 | 34728 ft | 402 kts | 243° |
| 2026-05-04 10:33 | -34.63535 | 150.66326 | 35396 ft | 399 kts | 243° |
| 2026-05-04 10:33 | -34.65158 | 150.63593 | 35865 ft | 399 kts | 243° |
| 2026-05-04 10:33 | -34.66785 | 150.60866 | 36018 ft | 398 kts | 243° |
| 2026-05-04 10:34 | -34.68398 | 150.58190 | 36047 ft | 387 kts | 243° |
| 2026-05-04 10:34 | -34.69983 | 150.55568 | 36043 ft | 383 kts | 243° |
| 2026-05-04 10:34 | -34.73113 | 150.50365 | 36052 ft | 380 kts | 243° |
| 2026-05-04 10:35 | -34.76223 | 150.45163 | 36065 ft | 380 kts | 243° |
| 2026-05-04 10:35 | -34.79326 | 150.39958 | 36063 ft | 380 kts | 243° |
| 2026-05-04 10:36 | -34.82413 | 150.34789 | 36073 ft | 381 kts | 243° |
| 2026-05-04 10:36 | -34.85533 | 150.29566 | 36067 ft | 382 kts | 243° |
| 2026-05-04 10:37 | -34.88658 | 150.24324 | 36070 ft | 383 kts | 243° |
| 2026-05-04 10:37 | -34.91783 | 150.19070 | 36070 ft | 383 kts | 243° |
| 2026-05-04 10:39 | -35.02700 | 150.00658 | 36099 ft | 384 kts | 243° |
| 2026-05-04 10:40 | -35.05829 | 149.95364 | 36099 ft | 385 kts | 243° |
| 2026-05-04 10:40 | -35.08935 | 149.90099 | 36101 ft | 385 kts | 243° |
| 2026-05-04 10:41 | -35.12058 | 149.84799 | 36140 ft | 384 kts | 244° |
| 2026-05-04 10:41 | -35.15168 | 149.79509 | 36095 ft | 383 kts | 244° |
| 2026-05-04 10:42 | -35.18280 | 149.74215 | 36089 ft | 384 kts | 244° |
| 2026-05-04 10:42 | -35.21388 | 149.68911 | 36089 ft | 384 kts | 244° |
| 2026-05-04 10:43 | -35.24473 | 149.63634 | 36087 ft | 384 kts | 244° |
| 2026-05-04 10:45 | -35.36901 | 149.42318 | 36124 ft | 385 kts | 244° |
| 2026-05-04 10:45 | -35.39985 | 149.37010 | 36125 ft | 385 kts | 244° |
| 2026-05-04 10:46 | -35.43092 | 149.31658 | 36143 ft | 385 kts | 244° |
| 2026-05-04 10:46 | -35.46199 | 149.26295 | 36134 ft | 386 kts | 244° |
| 2026-05-04 10:47 | -35.49308 | 149.20932 | 36127 ft | 386 kts | 244° |
| 2026-05-04 10:47 | -35.52411 | 149.15557 | 36122 ft | 386 kts | 244° |
| 2026-05-04 10:49 | -35.64783 | 148.94049 | 36123 ft | 386 kts | 244° |
| 2026-05-04 10:50 | -35.67873 | 148.88646 | 36117 ft | 386 kts | 244° |
| 2026-05-04 10:52 | -35.79688 | 148.67953 | 36118 ft | 387 kts | 244° |
| 2026-05-04 10:52 | -35.82772 | 148.62527 | 36108 ft | 386 kts | 244° |
| 2026-05-04 10:54 | -35.95086 | 148.40750 | 36114 ft | 387 kts | 244° |
| 2026-05-04 10:56 | -36.07331 | 148.18902 | 36133 ft | 389 kts | 244° |
| 2026-05-04 10:57 | -36.10405 | 148.13401 | 36118 ft | 389 kts | 244° |
| 2026-05-04 10:57 | -36.13462 | 148.07928 | 36112 ft | 389 kts | 244° |
| 2026-05-04 10:58 | -36.16546 | 148.02413 | 36106 ft | 390 kts | 244° |
| 2026-05-04 10:58 | -36.19626 | 147.96892 | 36105 ft | 390 kts | 244° |
| 2026-05-04 10:59 | -36.22705 | 147.91373 | 36125 ft | 390 kts | 244° |
| 2026-05-04 10:59 | -36.25783 | 147.85843 | 36120 ft | 390 kts | 244° |
| 2026-05-04 11:00 | -36.28838 | 147.80352 | 36120 ft | 389 kts | 244° |
| 2026-05-04 11:02 | -36.41115 | 147.58136 | 36125 ft | 391 kts | 244° |
| 2026-05-04 11:05 | -36.63919 | 147.16418 | 36076 ft | 389 kts | 244° |
| 2026-05-04 11:06 | -36.66950 | 147.10842 | 36111 ft | 389 kts | 244° |
| 2026-05-04 11:06 | -36.69973 | 147.05263 | 36074 ft | 388 kts | 244° |
| 2026-05-04 11:10 | -36.91271 | 146.65894 | 34464 ft | 401 kts | 238° |
| 2026-05-04 11:12 | -37.11857 | 146.60724 | 31025 ft | 447 kts | 192° |
| 2026-05-04 11:12 | -37.14947 | 146.60472 | 30582 ft | 445 kts | 192° |
| 2026-05-04 11:12 | -37.18040 | 146.60218 | 30085 ft | 445 kts | 192° |
| 2026-05-04 11:12 | -37.21125 | 146.59963 | 29596 ft | 443 kts | 192° |
| 2026-05-04 11:13 | -37.24187 | 146.59698 | 29171 ft | 439 kts | 192° |
| 2026-05-04 11:13 | -37.27215 | 146.59418 | 28730 ft | 434 kts | 192° |
| 2026-05-04 11:13 | -37.30213 | 146.59138 | 28321 ft | 429 kts | 192° |
| 2026-05-04 11:13 | -37.33177 | 146.58847 | 27970 ft | 425 kts | 192° |
| 2026-05-04 11:14 | -37.36106 | 146.58530 | 27507 ft | 420 kts | 192° |
| 2026-05-04 11:14 | -37.38963 | 146.58193 | 27108 ft | 416 kts | 192° |
| 2026-05-04 11:14 | -37.41822 | 146.57843 | 26735 ft | 410 kts | 192° |
| 2026-05-04 11:16 | -37.60792 | 146.54635 | 24107 ft | 369 kts | 210° |
| 2026-05-04 11:16 | -37.62932 | 146.52954 | 23877 ft | 358 kts | 227° |
| 2026-05-04 11:16 | -37.64546 | 146.50649 | 23650 ft | 346 kts | 243° |
| 2026-05-04 11:17 | -37.65551 | 146.47951 | 23389 ft | 336 kts | 258° |
| 2026-05-04 11:17 | -37.65932 | 146.45087 | 23111 ft | 327 kts | 273° |
| 2026-05-04 11:19 | -37.61639 | 146.26529 | 21225 ft | 314 kts | 289° |
| 2026-05-04 11:19 | -37.60962 | 146.23929 | 20964 ft | 310 kts | 289° |
| 2026-05-04 11:19 | -37.60284 | 146.21331 | 20708 ft | 312 kts | 289° |
| 2026-05-04 11:19 | -37.59611 | 146.18748 | 20463 ft | 309 kts | 289° |
| 2026-05-04 11:20 | -37.58942 | 146.16188 | 20216 ft | 306 kts | 289° |
| 2026-05-04 11:20 | -37.58276 | 146.13641 | 19957 ft | 306 kts | 289° |
| 2026-05-04 11:20 | -37.57607 | 146.11094 | 19711 ft | 307 kts | 289° |
| 2026-05-04 11:20 | -37.56936 | 146.08546 | 19473 ft | 305 kts | 289° |
| 2026-05-04 11:22 | -37.52384 | 145.91294 | 17745 ft | 292 kts | 289° |
| 2026-05-04 11:22 | -37.51747 | 145.88891 | 17472 ft | 287 kts | 289° |
| 2026-05-04 11:23 | -37.51115 | 145.86512 | 17211 ft | 284 kts | 289° |
| 2026-05-04 11:23 | -37.50491 | 145.84167 | 16952 ft | 281 kts | 288° |
| 2026-05-04 11:24 | -37.46746 | 145.70071 | 15405 ft | 285 kts | 288° |
| 2026-05-04 11:25 | -37.46132 | 145.67705 | 15156 ft | 284 kts | 285° |
| 2026-05-04 11:25 | -37.45890 | 145.65250 | 14905 ft | 284 kts | 270° |
| 2026-05-04 11:25 | -37.46188 | 145.62801 | 14656 ft | 285 kts | 256° |
| 2026-05-04 11:26 | -37.48185 | 145.58466 | 14175 ft | 291 kts | 238° |
| 2026-05-04 11:27 | -37.56392 | 145.44315 | 12365 ft | 280 kts | 238° |
| 2026-05-04 11:28 | -37.57539 | 145.42334 | 12114 ft | 279 kts | 238° |
| 2026-05-04 11:28 | -37.58681 | 145.40359 | 11855 ft | 278 kts | 238° |
| 2026-05-04 11:28 | -37.59816 | 145.38395 | 11604 ft | 276 kts | 238° |
| 2026-05-04 11:28 | -37.60933 | 145.36464 | 11339 ft | 276 kts | 238° |
| 2026-05-04 11:29 | -37.62063 | 145.34512 | 11084 ft | 275 kts | 238° |
| 2026-05-04 11:29 | -37.63187 | 145.32571 | 10840 ft | 273 kts | 238° |
| 2026-05-04 11:29 | -37.64303 | 145.30641 | 10599 ft | 271 kts | 238° |
| 2026-05-04 11:29 | -37.65400 | 145.28746 | 10415 ft | 262 kts | 238° |
| 2026-05-04 11:31 | -37.72038 | 145.17218 | 7866 ft | 222 kts | 239° |
| 2026-05-04 11:33 | -37.77936 | 145.06942 | 6144 ft | 189 kts | 239° |
| 2026-05-04 11:33 | -37.78716 | 145.05580 | 5750 ft | 189 kts | 239° |
| 2026-05-04 11:33 | -37.79491 | 145.04223 | 5373 ft | 189 kts | 239° |
| 2026-05-04 11:34 | -37.80254 | 145.02890 | 4997 ft | 188 kts | 239° |
| 2026-05-04 11:34 | -37.80970 | 145.01581 | 4630 ft | 181 kts | 245° |
| 2026-05-04 11:34 | -37.81483 | 145.00132 | 4262 ft | 177 kts | 255° |
| 2026-05-04 11:34 | -37.81769 | 144.98637 | 3892 ft | 177 kts | 261° |
| 2026-05-04 11:35 | -37.82029 | 144.97142 | 3603 ft | 168 kts | 261° |
| 2026-05-04 11:35 | -37.82269 | 144.95792 | 3556 ft | 147 kts | 260° |
| 2026-05-04 11:35 | -37.82477 | 144.94634 | 3534 ft | 126 kts | 261° |
| 2026-05-04 11:35 | -37.82641 | 144.93563 | 3505 ft | 122 kts | 264° |
| 2026-05-04 11:36 | -37.82771 | 144.92502 | 3465 ft | 122 kts | 265° |
| 2026-05-04 11:36 | -37.82899 | 144.91427 | 3421 ft | 125 kts | 264° |
| 2026-05-04 11:36 | -37.83028 | 144.90351 | 3366 ft | 125 kts | 265° |
| 2026-05-04 11:36 | -37.83158 | 144.89265 | 3312 ft | 124 kts | 265° |
| 2026-05-04 11:37 | -37.83284 | 144.88185 | 3251 ft | 124 kts | 267° |
| 2026-05-04 11:37 | -37.83042 | 144.87166 | 3191 ft | 127 kts | 302° |
| 2026-05-04 11:37 | -37.82219 | 144.86619 | 3026 ft | 148 kts | 339° |
| 2026-05-04 11:37 | -37.81190 | 144.86425 | 2825 ft | 146 kts | 340° |
| 2026-05-04 11:38 | -37.80242 | 144.86266 | 2638 ft | 128 kts | 340° |
| 2026-05-04 11:38 | -37.79384 | 144.86117 | 2468 ft | 121 kts | 339° |
| 2026-05-04 11:38 | -37.78560 | 144.85966 | 2305 ft | 118 kts | 339° |
| 2026-05-04 11:38 | -37.77756 | 144.85816 | 2148 ft | 116 kts | 340° |
| 2026-05-04 11:39 | -37.76952 | 144.85664 | 1995 ft | 117 kts | 340° |
| 2026-05-04 11:39 | -37.76149 | 144.85514 | 1845 ft | 117 kts | 340° |
| 2026-05-04 11:40 | -37.71258 | 144.84598 | 876 ft | 121 kts | 352° |
| 2026-05-04 11:41 | -37.70435 | 144.84458 | 773 ft | 118 kts | 354° |
| 2026-05-04 11:41 | -37.69614 | 144.84296 | 637 ft | 118 kts | 350° |
| 2026-05-04 11:41 | -37.68789 | 144.84141 | 432 ft | 119 kts | 352° |
| 2026-05-04 11:41 | -37.67977 | 144.83989 | 360 ft | 111 kts | 351° |
| 2026-05-04 11:42 | -37.67492 | 144.83896 | 367 ft | 47 kts | 351° |
| 2026-05-04 11:42 | -37.67199 | 144.83843 | 380 ft | 39 kts | 352° |
| 2026-05-04 11:42 | -37.66970 | 144.83852 | 387 ft | 31 kts | 18° |
| 2026-05-04 11:42 | -37.66866 | 144.83901 | 391 ft | 12 kts | 21° |
| 2026-05-04 11:43 | -37.66852 | 144.83908 | 391 ft | 3 kts | 21° |
| 2026-05-04 11:43 | -37.66842 | 144.83913 | 391 ft | 0 kts | 21° |
| 2026-05-04 11:43 | -37.66841 | 144.83913 | 391 ft | 0 kts | 21° |
| 2026-05-04 11:44 | -37.66841 | 144.83914 | 391 ft | 1 kts | 21° |
| 2026-05-04 11:44 | -37.66823 | 144.83923 | 392 ft | 5 kts | 24° |
| 2026-05-04 11:44 | -37.66803 | 144.83968 | 392 ft | 8 kts | 100° |
| 2026-05-04 11:44 | -37.66873 | 144.83999 | 389 ft | 15 kts | 176° |
| 2026-05-04 11:45 | -37.66970 | 144.84016 | 386 ft | 9 kts | 171° |
| 2026-05-04 11:45 | -37.67056 | 144.84034 | 384 ft | 16 kts | 170° |
| 2026-05-04 11:45 | -37.67165 | 144.84053 | 380 ft | 17 kts | 172° |
| 2026-05-04 11:45 | -37.67306 | 144.84078 | 376 ft | 24 kts | 171° |
| 2026-05-04 11:46 | -37.67493 | 144.84113 | 371 ft | 31 kts | 172° |
| 2026-05-04 11:46 | -37.67710 | 144.84153 | 365 ft | 19 kts | 171° |
| 2026-05-04 11:46 | -37.67820 | 144.84178 | 361 ft | 13 kts | 156° |
| 2026-05-04 11:46 | -37.67852 | 144.84297 | 361 ft | 17 kts | 84° |
| 2026-05-04 11:47 | -37.67834 | 144.84451 | 364 ft | 15 kts | 81° |
| 2026-05-04 11:47 | -37.67802 | 144.84584 | 367 ft | 13 kts | 43° |
| 2026-05-04 11:47 | -37.67751 | 144.84616 | 370 ft | 7 kts | 60° |
| 2026-05-04 11:47 | -37.67739 | 144.84688 | 371 ft | 10 kts | 82° |
| 2026-05-04 11:48 | -37.67737 | 144.84706 | 371 ft | 3 kts | 79° |
| 2026-05-04 11:48 | -37.67718 | 144.84722 | 372 ft | 4 kts | 15° |
| 2026-05-04 11:48 | -37.67684 | 144.84716 | 374 ft | 6 kts | 348° |
| 2026-05-04 11:48 | -37.67659 | 144.84711 | 375 ft | 1 kts | 352° |
| 2026-05-04 11:49 | -37.67653 | 144.84710 | 375 ft | 0 kts | 351° |